Time;durP1;ratioP1;P1;durP2;ratioP2;P2;SDS_P1;SDS_P2;PMS_P1;PMS_P2;Temp;Humidity;BMP_temperature;BMP_pressure;BME280_temperature;BME280_humidity;BME280_pressure;Samples;Min_cycle;Max_cycle;Signal;HPM_P1;HPM_P2
2022/09/24 00:00:40;;;;;;;33.63;23.67;;;16.10;99.90;;;;;;5033094;28;20009;-69
2022/09/24 00:03:06;;;;;;;29.55;22.70;;;16.20;99.90;;;;;;5036359;28;20032;-70
2022/09/24 00:05:37;;;;;;;32.03;23.60;;;16.10;99.90;;;;;;5041394;28;20022;-70
2022/09/24 00:08:02;;;;;;;32.92;22.73;;;16.10;99.90;;;;;;5024683;28;20036;-70
2022/09/24 00:10:28;;;;;;;34.58;24.45;;;16.10;99.90;;;;;;5040105;28;20375;-69
2022/09/24 00:12:53;;;;;;;32.05;24.20;;;16.10;99.90;;;;;;5047280;28;20041;-69
2022/09/24 00:15:19;;;;;;;32.33;24.35;;;16.10;99.90;;;;;;5037401;28;20030;-69
2022/09/24 00:17:46;;;;;;;26.42;19.38;;;16.10;99.90;;;;;;5045919;28;20114;-69
2022/09/24 00:20:11;;;;;;;31.20;21.25;;;16.00;99.90;;;;;;5050929;28;20053;-69
2022/09/24 00:22:37;;;;;;;28.25;19.90;;;16.00;99.90;;;;;;5037075;28;20099;-69
2022/09/24 00:27:47;;;;;;;26.83;19.80;;;16.00;99.90;;;;;;5046969;28;20563;-69
2022/09/24 00:30:12;;;;;;;32.97;22.40;;;15.90;99.90;;;;;;5033070;28;20064;-69
2022/09/24 00:32:38;;;;;;;31.02;21.50;;;16.00;99.90;;;;;;5033233;28;20113;-69
2022/09/24 00:35:05;;;;;;;27.98;20.95;;;15.90;99.90;;;;;;5031409;28;20025;-69
2022/09/24 00:37:31;;;;;;;27.60;19.83;;;16.00;99.90;;;;;;5034302;28;20041;-69
2022/09/24 00:39:56;;;;;;;29.38;19.45;;;16.00;99.90;;;;;;5033680;28;20429;-69
2022/09/24 00:42:22;;;;;;;31.65;21.23;;;16.00;99.90;;;;;;5034809;28;20053;-69
2022/09/24 00:44:52;;;;;;;26.48;18.92;;;16.00;99.90;;;;;;5033640;28;20049;-69
2022/09/24 00:47:54;;;;;;;32.50;21.33;;;16.00;99.90;;;;;;5033345;28;20358;-69
2022/09/24 00:50:24;;;;;;;29.73;21.60;;;16.00;99.90;;;;;;5032929;28;20026;-70
2022/09/24 00:52:58;;;;;;;33.15;22.45;;;15.90;99.90;;;;;;5031817;28;20061;-69
2022/09/24 00:55:25;;;;;;;30.75;22.15;;;15.80;99.90;;;;;;5034161;28;20140;-69
2022/09/24 00:58:04;;;;;;;32.15;21.63;;;15.70;99.90;;;;;;5034190;28;20056;-70
2022/09/24 01:00:31;;;;;;;34.53;22.52;;;15.70;99.90;;;;;;5031496;28;20033;-70
2022/09/24 01:03:08;;;;;;;30.17;21.25;;;15.70;99.90;;;;;;5034589;28;20029;-70
2022/09/24 01:05:36;;;;;;;33.10;21.33;;;15.80;99.90;;;;;;5033681;28;20092;-70
2022/09/24 01:08:03;;;;;;;33.78;22.98;;;15.80;99.90;;;;;;5034564;28;20025;-69
2022/09/24 01:10:50;;;;;;;35.05;23.92;;;15.80;99.90;;;;;;5034525;28;20065;-70
2022/09/24 01:13:16;;;;;;;32.53;23.88;;;15.70;99.90;;;;;;5032089;28;20140;-70
2022/09/24 01:15:51;;;;;;;31.13;23.95;;;15.80;99.90;;;;;;5034451;28;20109;-69
2022/09/24 01:18:45;;;;;;;28.88;22.02;;;15.80;99.90;;;;;;5031643;28;20571;-70
2022/09/24 01:21:35;;;;;;;32.30;23.30;;;15.80;99.90;;;;;;5029944;28;20107;-70
2022/09/24 01:24:06;;;;;;;32.72;24.33;;;15.80;99.90;;;;;;5032824;28;20056;-69
2022/09/24 01:26:47;;;;;;;32.47;25.10;;;15.80;99.90;;;;;;5033830;28;20009;-69
2022/09/24 01:29:32;;;;;;;35.60;26.13;;;15.80;99.90;;;;;;5033993;28;20104;-70
2022/09/24 01:32:12;;;;;;;33.00;23.48;;;15.70;99.90;;;;;;5031463;28;20076;-70
2022/09/24 01:34:43;;;;;;;36.65;25.88;;;15.70;99.90;;;;;;5030921;28;20021;-70
2022/09/24 01:37:13;;;;;;;38.75;26.77;;;15.80;99.90;;;;;;5033479;28;20376;-69
2022/09/24 01:39:40;;;;;;;42.38;28.92;;;15.70;99.90;;;;;;5033398;28;20072;-70
2022/09/24 01:42:09;;;;;;;34.95;27.00;;;15.70;99.90;;;;;;5031869;28;20061;-69
2022/09/24 01:44:36;;;;;;;39.55;26.17;;;15.70;99.90;;;;;;5031635;28;20022;-70
2022/09/24 01:47:05;;;;;;;40.65;29.77;;;15.70;99.90;;;;;;5034456;28;20048;-69
2022/09/24 01:49:31;;;;;;;42.50;30.25;;;15.70;99.90;;;;;;5033499;28;20527;-69
2022/09/24 01:52:00;;;;;;;40.22;29.73;;;15.70;99.90;;;;;;5034161;28;20083;-70
2022/09/24 01:54:34;;;;;;;40.13;29.63;;;15.60;99.90;;;;;;5033887;28;20100;-69
2022/09/24 01:57:22;;;;;;;36.83;28.63;;;15.70;99.90;;;;;;5032030;28;20026;-70
2022/09/24 02:00:00;;;;;;;46.22;31.13;;;15.70;99.90;;;;;;5033183;28;20048;-70
2022/09/24 02:02:44;;;;;;;47.08;33.22;;;15.70;99.90;;;;;;5033534;28;20021;-69
2022/09/24 02:05:15;;;;;;;43.03;29.23;;;15.60;99.90;;;;;;5033201;28;20022;-69
2022/09/24 02:07:49;;;;;;;43.47;31.40;;;15.60;99.90;;;;;;5034450;28;20053;-68
2022/09/24 02:10:17;;;;;;;43.67;31.77;;;15.50;99.90;;;;;;5033940;28;20048;-69
2022/09/24 02:12:46;;;;;;;47.38;32.95;;;15.60;99.90;;;;;;5033895;28;20034;-68
2022/09/24 02:15:19;;;;;;;44.80;31.55;;;15.60;99.90;;;;;;5033815;28;20030;-69
2022/09/24 02:17:47;;;;;;;;;;;15.60;99.90;;;;;;5034311;28;20032;-68
2022/09/24 02:20:18;;;;;;;45.75;33.47;;;15.60;99.90;;;;;;5032357;28;19905;-69
2022/09/24 02:22:46;;;;;;;45.60;33.23;;;15.70;99.90;;;;;;5024169;28;20025;-70
2022/09/24 02:25:17;;;;;;;44.03;31.02;;;15.70;99.90;;;;;;5033368;28;20091;-69
2022/09/24 02:27:43;;;;;;;50.72;31.40;;;15.70;99.90;;;;;;5033381;28;20026;-70
2022/09/24 02:30:09;;;;;;;50.08;35.42;;;15.70;99.90;;;;;;5033386;28;20048;-69
2022/09/24 02:32:38;;;;;;;50.33;33.55;;;15.70;99.90;;;;;;5032517;28;20029;-69
2022/09/24 02:35:07;;;;;;;54.08;36.25;;;15.70;99.90;;;;;;5032597;28;20115;-72
2022/09/24 02:37:39;;;;;;;55.85;37.42;;;15.70;99.90;;;;;;5033077;28;20025;-70
2022/09/24 02:40:09;;;;;;;63.25;36.42;;;15.60;99.90;;;;;;5030742;28;20033;-69
2022/09/24 02:42:36;;;;;;;53.20;34.50;;;15.40;99.90;;;;;;5032047;28;20072;-69
2022/09/24 02:45:03;;;;;;;49.17;33.67;;;15.50;99.90;;;;;;5032904;28;20030;-70
2022/09/24 02:47:29;;;;;;;49.42;34.25;;;15.60;99.90;;;;;;5033122;28;20505;-70
2022/09/24 02:49:55;;;;;;;49.53;32.65;;;15.60;99.90;;;;;;5032158;28;20028;-69
2022/09/24 02:52:21;;;;;;;47.72;33.85;;;15.60;99.90;;;;;;5032398;28;20041;-70
2022/09/24 02:54:49;;;;;;;52.97;32.53;;;15.70;99.90;;;;;;5031841;28;20044;-70
2022/09/24 02:57:15;;;;;;;47.97;34.30;;;15.70;99.90;;;;;;5031254;28;20036;-69
2022/09/24 02:59:41;;;;;;;54.58;36.35;;;15.70;99.90;;;;;;5032762;28;20026;-69
2022/09/24 03:02:07;;;;;;;43.72;30.02;;;15.60;99.90;;;;;;5032439;28;20032;-68
2022/09/24 03:04:32;;;;;;;46.13;31.80;;;15.60;99.90;;;;;;5032579;28;20116;-68
2022/09/24 03:06:59;;;;;;;47.38;33.00;;;15.50;99.90;;;;;;5032055;28;20025;-69
2022/09/24 03:09:24;;;;;;;47.03;32.65;;;15.50;99.90;;;;;;5032275;28;20412;-69
2022/09/24 03:11:50;;;;;;;46.72;31.88;;;15.60;99.90;;;;;;5032632;28;20040;-69
2022/09/24 03:14:16;;;;;;;45.85;32.65;;;15.70;99.90;;;;;;5032966;28;20374;-69
2022/09/24 03:16:42;;;;;;;43.13;30.42;;;15.60;99.90;;;;;;5032532;28;20033;-69
2022/09/24 03:19:07;;;;;;;42.15;31.83;;;15.70;99.90;;;;;;5031758;28;20028;-69
2022/09/24 03:21:33;;;;;;;47.97;32.70;;;15.70;99.90;;;;;;5031818;28;20036;-70
2022/09/24 03:23:59;;;;;;;44.88;31.50;;;15.80;99.90;;;;;;5033006;28;20036;-70
2022/09/24 03:26:25;;;;;;;49.17;35.85;;;15.70;99.90;;;;;;5031100;28;20025;-69
2022/09/24 03:28:51;;;;;;;50.50;35.17;;;15.80;99.90;;;;;;5032671;28;20087;-69
2022/09/24 03:31:17;;;;;;;56.00;35.42;;;15.70;99.90;;;;;;5032106;28;20606;-69
2022/09/24 03:33:46;;;;;;;56.08;38.30;;;15.80;99.90;;;;;;5032095;28;20029;-69
2022/09/24 03:36:23;;;;;;;58.03;36.58;;;15.70;99.90;;;;;;5031152;28;20037;-69
2022/09/24 03:38:55;;;;;;;48.55;32.90;;;15.80;99.90;;;;;;5032756;28;20040;-69
2022/09/24 03:41:21;;;;;;;51.63;34.88;;;15.80;99.90;;;;;;5032136;28;20486;-68
2022/09/24 03:43:47;;;;;;;49.95;35.97;;;15.80;99.90;;;;;;5030394;28;20069;-68
2022/09/24 03:46:14;;;;;;;48.92;35.10;;;15.70;99.90;;;;;;5030803;28;20049;-68
2022/09/24 03:48:40;;;;;;;51.10;35.35;;;15.70;99.90;;;;;;5031949;28;20055;-68
2022/09/24 03:51:11;;;;;;;51.60;36.50;;;15.70;99.90;;;;;;5031768;28;20036;-68
2022/09/24 03:53:38;;;;;;;56.65;36.78;;;15.70;99.90;;;;;;5032403;28;20576;-68
2022/09/24 03:56:05;;;;;;;52.42;34.90;;;15.70;99.90;;;;;;5032084;28;20138;-68
2022/09/24 03:58:35;;;;;;;49.17;33.58;;;15.70;99.90;;;;;;5032109;28;20075;-68
2022/09/24 04:01:01;;;;;;;50.65;34.35;;;15.70;99.90;;;;;;5032252;28;20072;-68
2022/09/24 04:03:27;;;;;;;48.50;31.92;;;15.70;99.90;;;;;;5031805;28;20045;-68
2022/09/24 04:05:52;;;;;;;48.08;33.60;;;15.70;99.90;;;;;;5032202;28;20060;-68
2022/09/24 04:08:22;;;;;;;53.47;33.78;;;15.70;99.90;;;;;;5031966;28;20375;-68
2022/09/24 04:10:49;;;;;;;47.63;33.80;;;15.70;99.90;;;;;;5031967;28;20053;-69
2022/09/24 04:13:15;;;;;;;51.40;33.50;;;15.70;99.90;;;;;;5032050;28;20029;-68
2022/09/24 04:15:41;;;;;;;47.28;33.03;;;15.80;99.90;;;;;;5031737;28;20496;-68
2022/09/24 04:18:07;;;;;;;42.47;29.83;;;15.70;99.90;;;;;;5032512;28;20026;-68
2022/09/24 04:20:34;;;;;;;45.65;31.77;;;15.80;99.90;;;;;;5031746;28;20029;-68
2022/09/24 04:23:00;;;;;;;48.67;32.22;;;15.70;99.90;;;;;;5032346;28;20030;-68
2022/09/24 04:25:31;;;;;;;52.90;33.00;;;15.70;99.90;;;;;;5032116;28;20152;-68
2022/09/24 04:28:00;;;;;;;77.45;38.92;;;15.60;99.90;;;;;;5032328;28;20028;-68
2022/09/24 04:30:28;;;;;;;54.15;34.92;;;15.60;99.90;;;;;;5031477;28;20025;-69
2022/09/24 04:32:54;;;;;;;49.70;34.33;;;15.60;99.90;;;;;;5031623;28;20080;-68
2022/09/24 04:35:22;;;;;;;52.72;33.15;;;15.70;99.90;;;;;;5032049;28;20060;-68
2022/09/24 04:37:48;;;;;;;59.97;35.90;;;15.70;99.90;;;;;;5032176;28;20496;-68
2022/09/24 04:40:15;;;;;;;45.10;31.38;;;15.70;99.90;;;;;;5031864;28;20021;-69
2022/09/24 04:42:41;;;;;;;56.83;35.30;;;15.60;99.90;;;;;;5031286;28;20045;-68
2022/09/24 04:45:09;;;;;;;50.88;34.20;;;15.60;99.90;;;;;;5031200;28;20049;-68
2022/09/24 04:47:36;;;;;;;43.28;31.58;;;15.50;99.90;;;;;;5031027;28;20035;-69
2022/09/24 04:50:04;;;;;;;47.70;32.35;;;15.60;99.90;;;;;;5031129;28;20580;-68
2022/09/24 04:52:31;;;;;;;56.20;36.22;;;15.60;99.90;;;;;;5031388;28;20076;-68
2022/09/24 04:55:01;;;;;;;46.05;30.88;;;15.50;99.90;;;;;;5031750;28;20619;-68
2022/09/24 04:57:28;;;;;;;49.22;32.17;;;15.40;99.90;;;;;;5034698;28;20022;-68
2022/09/24 04:59:54;;;;;;;47.38;31.23;;;15.40;99.90;;;;;;5033665;28;20087;-68
2022/09/24 05:02:20;;;;;;;49.03;34.50;;;15.40;99.90;;;;;;5035237;28;20025;-68
2022/09/24 05:04:46;;;;;;;53.67;34.72;;;15.50;99.90;;;;;;5034440;28;20083;-68
2022/09/24 05:07:12;;;;;;;49.22;34.58;;;15.60;99.90;;;;;;5035770;28;20029;-68
2022/09/24 05:09:38;;;;;;;51.88;35.72;;;15.50;99.90;;;;;;5035158;28;20497;-68
2022/09/24 05:12:04;;;;;;;54.53;36.35;;;15.50;99.90;;;;;;5035180;28;20033;-68
2022/09/24 05:14:30;;;;;;;56.08;35.30;;;15.60;99.90;;;;;;5034927;28;20029;-68
2022/09/24 05:16:56;;;;;;;45.30;33.03;;;15.50;99.90;;;;;;5031075;28;20030;-68
2022/09/24 05:19:22;;;;;;;52.67;33.58;;;15.40;99.90;;;;;;5031542;28;20445;-68
2022/09/24 05:21:48;;;;;;;43.75;32.80;;;15.40;99.90;;;;;;5015217;28;20022;-68
2022/09/24 05:24:14;;;;;;;47.70;33.08;;;15.40;99.90;;;;;;5014228;28;20034;-68
2022/09/24 05:29:24;;;;;;;45.42;32.50;;;15.40;99.90;;;;;;5015292;28;20045;-68
2022/09/24 05:31:50;;;;;;;49.83;31.55;;;15.50;99.90;;;;;;5034413;28;20029;-68
2022/09/24 05:34:15;;;;;;;50.25;33.00;;;15.40;99.90;;;;;;5034157;28;20061;-68
2022/09/24 05:36:42;;;;;;;59.40;36.25;;;15.30;99.90;;;;;;5034887;28;20052;-69
2022/09/24 05:39:12;;;;;;;49.38;31.77;;;15.20;99.90;;;;;;5034529;28;20116;-68
2022/09/24 05:41:38;;;;;;;48.55;33.80;;;15.20;99.90;;;;;;5034716;28;20024;-68
2022/09/24 05:44:04;;;;;;;48.20;32.88;;;15.30;99.90;;;;;;5019501;28;20505;-68
2022/09/24 05:46:31;;;;;;;43.85;30.55;;;15.30;99.90;;;;;;5014533;28;20471;-68
2022/09/24 05:48:57;;;;;;;50.00;34.45;;;15.30;99.90;;;;;;5013704;28;20505;-68
2022/09/24 05:51:23;;;;;;;51.67;34.92;;;15.30;99.90;;;;;;5033515;28;20127;-68
2022/09/24 05:53:49;;;;;;;51.47;33.58;;;15.30;99.90;;;;;;5032430;28;20171;-69
2022/09/24 05:56:15;;;;;;;60.47;38.58;;;15.30;99.90;;;;;;5034236;28;20025;-69
2022/09/24 05:58:40;;;;;;;54.00;37.25;;;15.20;99.90;;;;;;5027976;28;20037;-68
2022/09/24 06:01:06;;;;;;;52.67;36.13;;;15.20;99.90;;;;;;5014381;28;20022;-68
2022/09/24 06:03:32;;;;;;;51.97;36.83;;;15.20;99.90;;;;;;5014808;28;20037;-68
2022/09/24 06:06:06;;;;;;;60.88;39.85;;;15.30;99.90;;;;;;5032904;28;20529;-68
2022/09/24 06:08:32;;;;;;;52.47;36.30;;;15.30;99.90;;;;;;5033251;28;20029;-68
2022/09/24 06:11:05;;;;;;;48.35;34.30;;;15.30;99.90;;;;;;5033261;28;20032;-68
2022/09/24 06:13:33;;;;;;;52.22;37.55;;;15.40;99.90;;;;;;5033023;28;20043;-68
2022/09/24 06:16:04;;;;;;;54.17;36.10;;;15.40;99.90;;;;;;5033255;28;20053;-68
2022/09/24 06:18:31;;;;;;;56.75;39.50;;;15.20;99.90;;;;;;5033469;28;20037;-68
2022/09/24 06:21:06;;;;;;;41.75;31.60;;;15.20;99.90;;;;;;5033646;28;20020;-68
2022/09/24 06:23:36;;;;;;;55.88;37.92;;;15.20;99.90;;;;;;5032775;28;20041;-68
2022/09/24 06:26:02;;;;;;;49.80;37.00;;;15.30;99.90;;;;;;5033252;28;20025;-68
2022/09/24 06:28:28;;;;;;;56.50;37.45;;;15.30;99.90;;;;;;5033537;28;20025;-68
2022/09/24 06:30:53;;;;;;;59.13;35.53;;;15.30;99.90;;;;;;5033302;28;20083;-68
2022/09/24 06:33:19;;;;;;;49.08;32.45;;;15.40;99.90;;;;;;5033553;28;20083;-68
2022/09/24 06:35:45;;;;;;;60.72;37.13;;;15.40;99.90;;;;;;5032617;28;20017;-68
2022/09/24 06:38:13;;;;;;;72.88;39.28;;;15.40;99.90;;;;;;5032986;28;20033;-68
2022/09/24 06:40:39;;;;;;;46.85;32.95;;;15.50;99.90;;;;;;5032576;28;20113;-68
2022/09/24 06:43:06;;;;;;;63.17;41.83;;;15.40;99.90;;;;;;5032250;28;20088;-68
2022/09/24 06:45:33;;;;;;;70.15;44.72;;;15.40;99.90;;;;;;5032571;28;20501;-68
2022/09/24 06:48:00;;;;;;;76.97;47.83;;;15.30;99.90;;;;;;5032879;28;20021;-68
2022/09/24 06:50:28;;;;;;;63.55;43.38;;;15.40;99.90;;;;;;5032949;28;20025;-68
2022/09/24 06:52:55;;;;;;;58.65;37.47;;;15.50;99.90;;;;;;5032824;28;20547;-68
2022/09/24 06:55:22;;;;;;;68.22;44.72;;;15.50;99.90;;;;;;5032467;28;20378;-68
2022/09/24 06:57:47;;;;;;;58.95;39.60;;;15.30;99.90;;;;;;5013266;28;20037;-68
2022/09/24 07:00:14;;;;;;;54.75;35.00;;;15.20;99.90;;;;;;5013545;28;20030;-68
2022/09/24 07:02:40;;;;;;;49.50;32.72;;;15.20;99.90;;;;;;5013551;28;20021;-68
2022/09/24 07:05:07;;;;;;;51.28;35.80;;;15.20;99.90;;;;;;5028886;28;20053;-68
2022/09/24 07:07:34;;;;;;;57.85;38.05;;;15.20;99.90;;;;;;5032707;28;20586;-68
2022/09/24 07:10:02;;;;;;;46.90;33.35;;;15.10;99.90;;;;;;5032986;28;20018;-68
2022/09/24 07:12:29;;;;;;;43.65;29.85;;;15.20;99.90;;;;;;5028215;28;20491;-68
2022/09/24 07:14:55;;;;;;;41.13;30.23;;;15.10;99.90;;;;;;5021068;28;20520;-68
2022/09/24 07:17:20;;;;;;;44.42;29.10;;;15.20;99.90;;;;;;5024693;28;20022;-68
2022/09/24 07:19:46;;;;;;;47.33;30.17;;;15.30;99.90;;;;;;5023937;28;20036;-68
2022/09/24 07:22:12;;;;;;;41.08;27.67;;;15.20;99.90;;;;;;5026548;28;20025;-69
2022/09/24 07:24:38;;;;;;;52.53;31.02;;;15.10;99.90;;;;;;5025436;28;20030;-68
2022/09/24 07:27:04;;;;;;;45.55;31.08;;;15.10;99.90;;;;;;5024592;28;20409;-68
2022/09/24 07:29:30;;;;;;;45.22;30.13;;;15.10;99.90;;;;;;5024734;28;20041;-69
2022/09/24 07:31:55;;;;;;;44.30;29.85;;;15.10;99.90;;;;;;5019326;28;20046;-68
2022/09/24 07:34:21;;;;;;;55.20;34.33;;;15.10;99.90;;;;;;5019882;28;20037;-67
2022/09/24 07:36:47;;;;;;;50.10;32.40;;;15.10;99.90;;;;;;5026935;28;20479;-68
2022/09/24 07:39:13;;;;;;;42.50;28.25;;;15.00;99.90;;;;;;5023690;28;20021;-68
2022/09/24 07:41:40;;;;;;;51.10;33.05;;;15.10;99.90;;;;;;5027438;28;20034;-69
2022/09/24 07:44:06;;;;;;;45.65;30.20;;;15.10;99.90;;;;;;5025145;28;20120;-68
2022/09/24 07:46:32;;;;;;;55.05;35.13;;;15.20;99.90;;;;;;5017814;28;20049;-68
2022/09/24 07:48:58;;;;;;;48.55;30.63;;;15.20;99.90;;;;;;5026262;28;20056;-70
2022/09/24 07:51:27;;;;;;;43.38;30.20;;;15.10;99.90;;;;;;5024706;28;20021;-68
2022/09/24 07:53:54;;;;;;;41.97;29.38;;;15.20;99.90;;;;;;5028313;28;20082;-68
2022/09/24 07:56:20;;;;;;;48.30;32.50;;;15.10;99.90;;;;;;5027495;28;20493;-68
2022/09/24 07:58:52;;;;;;;42.55;28.33;;;15.20;99.90;;;;;;5031073;28;20100;-68
2022/09/24 08:01:19;;;;;;;48.75;31.17;;;15.30;99.90;;;;;;5025495;28;20018;-68
2022/09/24 08:03:45;;;;;;;41.17;28.63;;;15.30;99.90;;;;;;5030780;28;20018;-68
2022/09/24 08:06:12;;;;;;;44.13;29.38;;;15.30;99.90;;;;;;5024324;28;20033;-68
2022/09/24 08:08:38;;;;;;;45.15;30.25;;;15.30;99.90;;;;;;5024859;28;20018;-68
2022/09/24 08:11:09;;;;;;;43.88;29.08;;;15.40;99.90;;;;;;5030122;28;20022;-68
2022/09/24 08:13:35;;;;;;;35.65;25.75;;;15.40;99.90;;;;;;5030492;28;20072;-68
2022/09/24 08:16:02;;;;;;;41.67;27.20;;;15.30;99.90;;;;;;5023239;28;20029;-68
2022/09/24 08:18:30;;;;;;;43.85;28.65;;;15.40;99.90;;;;;;5022982;28;20045;-68
2022/09/24 08:20:57;;;;;;;43.92;28.00;;;15.40;99.90;;;;;;5024005;28;20588;-68
2022/09/24 08:23:22;;;;;;;43.10;27.80;;;15.50;99.90;;;;;;5023054;28;20060;-68
2022/09/24 08:25:48;;;;;;;40.13;27.25;;;15.50;99.90;;;;;;5023502;28;20053;-68
2022/09/24 08:28:18;;;;;;;35.08;24.60;;;15.60;99.90;;;;;;5022645;28;20546;-68
2022/09/24 08:30:45;;;;;;;32.75;22.40;;;15.50;99.90;;;;;;5023279;28;20572;-68
2022/09/24 08:33:11;;;;;;;34.35;22.92;;;15.50;99.90;;;;;;5020088;28;20038;-68
2022/09/24 08:35:40;;;;;;;35.80;23.50;;;15.50;99.90;;;;;;5030791;28;20501;-68
2022/09/24 08:38:06;;;;;;;38.95;25.25;;;15.60;99.90;;;;;;5029094;28;20075;-68
2022/09/24 08:40:45;;;;;;;34.35;24.33;;;15.70;99.90;;;;;;5023825;28;20025;-68
2022/09/24 08:43:29;;;;;;;40.67;26.10;;;15.80;99.90;;;;;;5022366;28;20489;-68
2022/09/24 08:48:48;;;;;;;30.30;22.75;;;15.80;99.90;;;;;;5032027;28;20040;-68
2022/09/24 08:51:19;;;;;;;36.15;24.23;;;15.90;99.90;;;;;;5025801;28;20089;-68
2022/09/24 08:53:57;;;;;;;31.15;22.42;;;16.00;99.90;;;;;;5024268;28;20052;-68
2022/09/24 08:56:29;;;;;;;33.40;23.63;;;16.10;99.90;;;;;;5030217;28;20104;-68
2022/09/24 08:59:02;;;;;;;32.78;23.13;;;16.00;99.90;;;;;;5022713;28;20046;-68
2022/09/24 09:01:30;;;;;;;37.80;25.55;;;16.10;99.90;;;;;;5031202;28;20033;-69
2022/09/24 09:04:21;;;;;;;32.47;22.38;;;16.10;99.90;;;;;;5027701;28;20030;-68
2022/09/24 09:07:02;;;;;;;32.10;21.67;;;16.00;99.90;;;;;;5029987;28;20045;-68
2022/09/24 09:09:45;;;;;;;37.67;24.38;;;16.00;99.90;;;;;;5030246;28;20036;-69
2022/09/24 09:12:26;;;;;;;35.30;23.75;;;16.10;99.90;;;;;;5034409;28;20036;-68
2022/09/24 09:15:02;;;;;;;33.30;21.83;;;16.10;99.90;;;;;;5031913;28;20029;-68
2022/09/24 09:17:44;;;;;;;36.60;23.02;;;16.10;99.90;;;;;;5034230;28;20026;-69
2022/09/24 09:20:30;;;;;;;31.58;21.15;;;16.10;99.90;;;;;;5034957;28;20508;-69
2022/09/24 09:23:02;;;;;;;29.77;21.85;;;16.20;99.90;;;;;;5034806;28;20072;-68
2022/09/24 09:25:32;;;;;;;32.67;21.90;;;16.30;99.90;;;;;;5033866;28;20021;-68
2022/09/24 09:28:00;;;;;;;33.95;22.10;;;16.40;99.90;;;;;;5035148;28;20080;-69
2022/09/24 09:30:36;;;;;;;35.47;22.75;;;16.50;99.90;;;;;;5032715;28;20417;-68
2022/09/24 09:33:23;;;;;;;37.75;24.52;;;16.50;99.90;;;;;;5034395;28;20068;-68
2022/09/24 09:36:15;;;;;;;30.27;21.10;;;16.50;99.90;;;;;;5033145;28;20028;-69
2022/09/24 09:39:01;;;;;;;33.63;22.15;;;16.40;99.90;;;;;;5033587;28;20560;-69
2022/09/24 09:41:49;;;;;;;30.50;20.70;;;16.50;99.90;;;;;;5033821;28;20029;-69
2022/09/24 09:44:29;;;;;;;32.75;21.25;;;16.60;99.90;;;;;;5033486;28;20137;-69
2022/09/24 09:47:26;;;;;;;31.63;21.15;;;16.70;99.90;;;;;;5034630;28;20026;-69
2022/09/24 09:49:55;;;;;;;31.55;20.83;;;16.60;99.90;;;;;;5032993;28;20021;-69
2022/09/24 09:52:25;;;;;;;28.63;20.20;;;16.60;99.90;;;;;;5034624;28;20048;-70
2022/09/24 09:54:51;;;;;;;29.08;19.33;;;16.60;99.90;;;;;;5033943;28;20389;-69
2022/09/24 09:57:20;;;;;;;25.30;17.95;;;16.60;99.90;;;;;;5033508;28;20029;-69
2022/09/24 09:59:51;;;;;;;22.67;16.00;;;16.80;99.90;;;;;;5020259;28;20724;-70
2022/09/24 10:02:34;;;;;;;24.63;16.80;;;16.70;99.90;;;;;;5010417;28;20025;-70
2022/09/24 10:05:04;;;;;;;22.95;16.40;;;16.70;99.90;;;;;;5014946;28;20466;-71
2022/09/24 10:07:30;;;;;;;25.42;16.67;;;16.80;99.90;;;;;;5031412;28;20017;-70
2022/09/24 10:10:00;;;;;;;25.75;18.33;;;16.80;99.90;;;;;;5032779;28;20033;-68
2022/09/24 10:12:26;;;;;;;29.10;17.33;;;16.90;99.90;;;;;;5048194;28;20034;-68
2022/09/24 10:15:00;;;;;;;22.90;15.32;;;17.00;99.90;;;;;;5040972;28;20029;-69
2022/09/24 10:17:34;;;;;;;20.02;15.10;;;17.00;99.90;;;;;;5038670;28;20028;-69
2022/09/24 10:20:01;;;;;;;18.73;15.20;;;17.10;99.90;;;;;;5048623;28;20057;-69
2022/09/24 10:22:28;;;;;;;22.13;14.60;;;17.10;99.90;;;;;;5037118;28;20105;-69
2022/09/24 10:24:58;;;;;;;21.48;16.77;;;17.10;99.90;;;;;;5042462;28;20018;-70
2022/09/24 10:27:36;;;;;;;18.73;13.80;;;17.20;99.90;;;;;;5044292;28;20108;-69
2022/09/24 10:33:03;;;;;;;16.50;13.65;;;17.20;99.90;;;;;;5027451;28;20049;-69
2022/09/24 10:35:34;;;;;;;16.38;12.95;;;17.30;99.90;;;;;;5032216;28;20013;-69
2022/09/24 10:38:03;;;;;;;16.20;12.15;;;17.30;99.90;;;;;;5034479;28;20018;-69
2022/09/24 10:40:37;;;;;;;14.90;11.25;;;17.40;99.90;;;;;;5032571;28;20036;-69
2022/09/24 10:43:05;;;;;;;13.43;11.32;;;17.30;99.90;;;;;;5041989;28;20032;-70
2022/09/24 10:45:45;;;;;;;17.58;11.02;;;17.40;99.90;;;;;;5039498;28;20091;-69
2022/09/24 10:48:15;;;;;;;13.93;10.20;;;17.50;99.90;;;;;;5048931;28;20096;-69
2022/09/24 10:51:12;;;;;;;11.90;8.93;;;17.60;99.90;;;;;;5038667;28;20100;-69
2022/09/24 10:54:02;;;;;;;9.52;7.35;;;17.70;99.90;;;;;;5036680;28;20037;-69
2022/09/24 10:56:52;;;;;;;8.85;7.35;;;17.70;99.90;;;;;;5023441;28;20017;-70
2022/09/24 10:59:50;;;;;;;13.60;7.63;;;17.70;99.90;;;;;;5039311;28;20064;-70
2022/09/24 11:02:33;;;;;;;13.07;7.75;;;17.80;99.90;;;;;;5032957;28;20108;-70
2022/09/24 11:05:20;;;;;;;10.57;7.82;;;17.80;99.90;;;;;;5019632;28;20021;-69
2022/09/24 11:07:55;;;;;;;8.73;7.28;;;18.10;99.90;;;;;;5045864;28;20485;-69
2022/09/24 11:10:52;;;;;;;12.65;7.80;;;18.00;99.90;;;;;;5017219;28;20059;-69
2022/09/24 11:13:42;;;;;;;10.15;7.88;;;18.00;99.90;;;;;;5031209;28;20437;-69
2022/09/24 11:16:46;;;;;;;14.50;7.80;;;18.00;99.90;;;;;;5048382;28;20473;-68
2022/09/24 11:19:35;;;;;;;9.57;7.60;;;18.00;99.90;;;;;;5035148;28;20025;-69
2022/09/24 11:22:31;;;;;;;10.75;7.43;;;18.00;99.90;;;;;;5046586;28;20027;-69
2022/09/24 11:25:15;;;;;;;11.85;6.82;;;17.90;99.90;;;;;;5040987;28;20028;-69
2022/09/24 11:27:43;;;;;;;9.15;6.85;;;17.90;99.90;;;;;;5036563;28;20022;-69
2022/09/24 11:30:17;;;;;;;7.90;6.28;;;18.10;99.90;;;;;;5031649;28;20040;-69
2022/09/24 11:33:08;;;;;;;8.23;6.13;;;18.10;99.90;;;;;;5038805;28;20021;-70
2022/09/24 11:35:55;;;;;;;10.13;6.18;;;18.10;99.90;;;;;;5033867;28;20394;-70
2022/09/24 11:38:32;;;;;;;12.23;5.55;;;18.20;99.90;;;;;;5032249;28;20374;-71
2022/09/24 11:41:22;;;;;;;10.73;5.88;;;18.30;99.90;;;;;;5040790;28;20029;-70
2022/09/24 11:44:05;;;;;;;9.63;5.75;;;18.20;99.90;;;;;;5029675;28;20093;-70
2022/09/24 11:46:55;;;;;;;11.70;6.65;;;18.20;99.90;;;;;;5028727;28;20025;-70
2022/09/24 11:49:35;;;;;;;10.13;6.85;;;18.10;99.90;;;;;;5029383;28;20029;-70
2022/09/24 11:52:10;;;;;;;8.38;7.13;;;18.30;99.90;;;;;;5022065;28;20029;-71
2022/09/24 11:54:55;;;;;;;9.95;7.22;;;18.30;99.90;;;;;;5030930;28;20033;-70
2022/09/24 11:57:29;;;;;;;14.52;8.18;;;18.40;99.90;;;;;;5030156;28;20080;-70
2022/09/24 12:00:00;;;;;;;11.90;7.32;;;18.50;99.90;;;;;;5028547;28;20024;-70
2022/09/24 12:02:36;;;;;;;10.30;7.70;;;18.40;99.90;;;;;;5028481;28;20032;-71
2022/09/24 12:05:06;;;;;;;12.30;7.97;;;18.10;99.90;;;;;;5035510;28;20083;-71
2022/09/24 12:07:43;;;;;;;9.05;6.35;;;18.00;99.90;;;;;;5034821;28;20634;-70
2022/09/24 12:10:48;;;;;;;9.73;6.28;;;18.10;99.90;;;;;;5035858;28;20354;-70
2022/09/24 12:13:20;;;;;;;11.43;7.45;;;18.20;99.90;;;;;;5032081;28;20401;-69
2022/09/24 12:15:56;;;;;;;9.63;6.90;;;18.20;99.90;;;;;;5035871;28;20040;-70
2022/09/24 12:18:26;;;;;;;11.38;6.45;;;18.20;99.90;;;;;;5030926;28;20381;-69
2022/09/24 12:21:02;;;;;;;8.90;7.10;;;18.30;99.90;;;;;;5033590;28;20037;-70
2022/09/24 12:23:31;;;;;;;12.45;7.70;;;18.30;99.90;;;;;;5035947;28;20022;-69
2022/09/24 12:26:01;;;;;;;11.20;7.80;;;18.40;99.90;;;;;;5035085;28;20022;-70
2022/09/24 12:35:03;;;;;;;12.15;7.30;;;18.50;99.90;;;;;;5032623;28;20083;-70
2022/09/24 12:37:37;;;;;;;9.38;6.88;;;18.60;99.90;;;;;;5031006;28;20624;-70
2022/09/24 12:40:41;;;;;;;10.32;7.78;;;18.60;99.90;;;;;;5030114;28;20080;-70
2022/09/24 12:43:28;;;;;;;11.95;8.23;;;18.40;99.90;;;;;;5026112;28;20040;-70
2022/09/24 12:46:00;;;;;;;12.73;8.43;;;18.40;99.90;;;;;;5026728;28;20030;-71
2022/09/24 12:48:28;;;;;;;13.20;8.10;;;18.40;99.90;;;;;;5025627;28;20099;-69
2022/09/24 12:51:03;;;;;;;17.17;9.65;;;18.30;99.90;;;;;;5026849;28;20030;-70
2022/09/24 12:53:34;;;;;;;13.82;9.00;;;18.40;99.90;;;;;;5024824;28;20038;-70
2022/09/24 12:56:02;;;;;;;13.50;8.90;;;18.40;99.90;;;;;;5031031;28;20018;-70
2022/09/24 12:58:36;;;;;;;14.40;9.77;;;18.40;99.90;;;;;;5026879;28;20397;-70
2022/09/24 13:01:24;;;;;;;13.85;9.43;;;18.40;99.90;;;;;;5028491;28;20075;-71
2022/09/24 13:04:25;;;;;;;13.07;11.32;;;18.40;99.90;;;;;;5029451;28;20056;-69
2022/09/24 13:06:52;;;;;;;16.38;11.30;;;18.30;99.90;;;;;;5024921;28;20026;-70